createdAt,value
2024-01-11T00:02:20.353Z,103497.69
2024-01-11T00:04:46.890Z,103499.88
2024-01-11T00:07:13.839Z,103494.66
2024-01-11T00:09:42.461Z,103497.66
2024-01-11T00:12:09.492Z,103489.13
2024-01-11T00:14:36.787Z,103489.75
2024-01-11T00:19:59.392Z,103487.75
2024-01-11T00:22:25.967Z,103493.28
2024-01-11T00:24:52.574Z,103489.09
2024-01-11T00:27:19.102Z,103496.59
2024-01-11T00:29:45.644Z,103488.03
2024-01-11T00:32:12.249Z,103497.25
2024-01-11T00:34:41.785Z,103496.03
2024-01-11T00:37:08.326Z,103494.03
2024-01-11T00:39:34.852Z,103491.53
2024-01-11T00:42:01.403Z,103493.84
2024-01-11T00:44:29.220Z,103498.19
2024-01-11T00:46:56.209Z,103483.97
2024-01-11T00:52:27.152Z,103483.44
2024-01-11T00:54:53.780Z,103480.09
2024-01-11T00:57:24.413Z,103480.78
2024-01-11T00:59:50.965Z,103495.84
2024-01-11T01:02:17.600Z,103491.66
2024-01-11T01:04:44.529Z,103492.00
2024-01-11T01:07:11.102Z,103489.78
2024-01-11T01:09:37.738Z,103493.47
2024-01-11T01:12:06.917Z,103498.13
2024-01-11T01:14:33.442Z,103499.13
2024-01-11T01:17:00.061Z,103488.75
2024-01-11T01:19:26.686Z,103502.13
2024-01-11T01:21:53.276Z,103497.09
2024-01-11T01:27:38.633Z,103505.44
2024-01-11T01:30:30.132Z,103512.78
2024-01-11T01:32:57.380Z,103511.56
2024-01-11T01:35:48.732Z,103502.72
2024-01-11T01:38:15.689Z,103509.06
2024-01-11T01:40:49.521Z,103513.56
2024-01-11T01:43:31.453Z,103500.34
2024-01-11T01:46:08.394Z,103507.53
2024-01-11T01:48:50.669Z,103517.75
2024-01-11T01:51:17.485Z,103520.41
2024-01-11T01:53:52.594Z,103513.38
2024-01-11T01:56:43.843Z,103532.09
2024-01-11T01:59:14.007Z,103529.59
2024-01-11T02:01:41.015Z,103520.88
2024-01-11T02:04:10.434Z,103526.22
2024-01-11T02:06:37.595Z,103529.91
2024-01-11T02:09:04.819Z,103529.38
2024-01-11T02:11:31.665Z,103540.38
2024-01-11T02:13:58.878Z,103545.72
2024-01-11T02:16:25.657Z,103544.22
2024-01-11T02:18:52.337Z,103549.19
2024-01-11T02:21:25.937Z,103545.44
2024-01-11T02:24:05.952Z,103537.72
2024-01-11T02:26:36.089Z,103535.75
2024-01-11T02:29:03.152Z,103526.72
2024-01-11T02:31:29.765Z,103529.53
2024-01-11T02:33:57.128Z,103533.22
2024-01-11T02:36:24.419Z,103528.88
2024-01-11T02:38:52.708Z,103531.53
2024-01-11T02:41:19.748Z,103532.03
2024-01-11T02:43:49.862Z,103531.19
2024-01-11T02:46:18.595Z,103530.19
2024-01-11T02:48:45.549Z,103524.00
2024-01-11T02:51:12.378Z,103525.00
2024-01-11T02:53:40.909Z,103518.97
2024-01-11T02:56:07.497Z,103512.63
2024-01-11T02:58:34.014Z,103517.13
2024-01-11T03:01:00.627Z,103520.25
2024-01-11T03:03:27.223Z,103513.09
2024-01-11T03:05:55.529Z,103516.75
2024-01-11T03:08:22.190Z,103512.84
2024-01-11T03:10:48.783Z,103520.88
2024-01-11T03:13:15.313Z,103520.19
2024-01-11T03:15:41.745Z,103521.19
2024-01-11T03:18:08.420Z,103538.53
2024-01-11T03:20:38.036Z,103537.69
2024-01-11T03:23:04.604Z,103536.00
2024-01-11T03:25:31.178Z,103539.66
2024-01-11T03:27:59.033Z,103536.31
2024-01-11T03:30:26.101Z,103533.94
2024-01-11T03:32:52.819Z,103529.44
2024-01-11T03:35:20.129Z,103541.81
2024-01-11T03:37:46.666Z,103549.63
2024-01-11T03:40:13.305Z,103545.94
2024-01-11T03:42:39.833Z,103540.47
2024-01-11T03:45:06.815Z,103530.75
2024-01-11T03:47:33.514Z,103530.59
2024-01-11T03:50:25.444Z,103540.31
2024-01-11T03:52:52.005Z,103536.94
2024-01-11T03:55:18.841Z,103535.25
2024-01-11T04:04:02.458Z,103556.94
2024-01-11T04:07:19.751Z,103561.75
2024-01-11T04:09:49.516Z,103548.25
2024-01-11T04:12:47.254Z,103562.59
2024-01-11T04:19:11.085Z,103565.72
2024-01-11T04:21:40.034Z,103562.78
2024-01-11T04:24:07.715Z,103569.81
2024-01-11T04:26:34.405Z,103566.47
2024-01-11T04:29:01.306Z,103584.16
2024-01-11T04:31:28.456Z,103590.22
2024-01-11T04:33:55.098Z,103576.84
2024-01-11T04:36:21.887Z,103571.66
2024-01-11T04:38:48.444Z,103585.72
2024-01-11T04:41:18.591Z,103590.50
2024-01-11T04:43:45.779Z,103570.97
2024-01-11T04:46:22.830Z,103581.78
2024-01-11T04:48:51.434Z,103589.13
2024-01-11T04:58:45.819Z,103583.78
2024-01-11T05:01:19.416Z,103600.94
2024-01-11T05:03:49.571Z,103601.94
2024-01-11T05:06:20.458Z,103581.56
2024-01-11T05:08:48.059Z,103577.88
2024-01-11T05:11:18.671Z,103578.03
2024-01-11T05:13:48.714Z,103577.38
2024-01-11T05:16:23.577Z,103587.22
2024-01-11T05:18:51.119Z,103574.84
2024-01-11T05:21:20.930Z,103590.03
2024-01-11T05:23:47.945Z,103580.34
2024-01-11T05:26:16.204Z,103572.34
2024-01-11T05:28:42.863Z,103568.66
2024-01-11T05:31:16.281Z,103563.66
2024-01-11T05:33:43.588Z,103561.97
2024-01-11T05:36:10.686Z,103552.81
2024-01-11T05:38:37.373Z,103545.63
2024-01-11T05:41:04.189Z,103550.97
2024-01-11T05:43:30.743Z,103561.00
2024-01-11T05:45:57.246Z,103573.66
2024-01-11T05:48:23.878Z,103563.81
2024-01-11T05:50:50.487Z,103551.59
2024-01-11T05:53:18.338Z,103550.19
2024-01-11T05:55:44.988Z,103568.91
2024-01-11T05:58:11.492Z,103578.59
2024-01-11T06:00:38.125Z,103575.22
2024-01-11T06:03:08.494Z,103582.53
2024-01-11T06:05:35.147Z,103581.72
2024-01-11T06:08:01.741Z,103588.19
2024-01-11T06:10:28.302Z,103593.53
2024-01-11T06:12:54.820Z,103592.13
2024-01-11T06:15:21.297Z,103587.78
2024-01-11T06:17:49.492Z,103609.16
2024-01-11T06:20:16.238Z,103617.16
2024-01-11T06:22:46.059Z,103635.16
2024-01-11T06:25:12.964Z,103654.84
2024-01-11T06:27:39.636Z,103656.81
2024-01-11T06:30:08.058Z,103660.31
2024-01-11T06:32:34.746Z,103655.13
2024-01-11T06:35:04.433Z,103642.75
2024-01-11T06:37:31.394Z,103660.78
2024-01-11T06:40:00.379Z,103668.09
2024-01-11T06:42:27.263Z,103674.28
2024-01-11T06:44:54.171Z,103668.09
2024-01-11T06:47:21.996Z,103668.94
2024-01-11T06:49:49.283Z,103662.75
2024-01-11T06:52:17.755Z,103667.41
2024-01-11T06:54:44.662Z,103663.03
2024-01-11T06:57:11.804Z,103674.56
2024-01-11T07:02:30.825Z,103683.56
2024-01-11T07:04:57.914Z,103682.72
2024-01-11T07:07:24.526Z,103679.06
2024-01-11T07:16:14.462Z,103673.72
2024-01-11T07:18:42.728Z,103665.56
2024-01-11T07:21:30.404Z,103650.38
2024-01-11T07:24:09.624Z,103648.56
2024-01-11T07:26:36.331Z,103649.56
2024-01-11T07:29:02.969Z,103648.72
2024-01-11T07:31:30.560Z,103632.69
2024-01-11T07:33:57.229Z,103641.69
2024-01-11T07:36:26.475Z,103629.19
2024-01-11T07:38:54.236Z,103629.31
2024-01-11T07:41:23.805Z,103641.69
2024-01-11T07:43:54.424Z,103658.00
2024-01-11T07:46:29.270Z,103647.31
2024-01-11T07:49:04.075Z,103658.00
2024-01-11T07:51:30.771Z,103652.38
2024-01-11T07:53:57.452Z,103643.38
2024-01-11T07:56:23.964Z,103648.41
2024-01-11T07:58:50.543Z,103637.59
2024-01-11T08:01:17.767Z,103654.00
2024-01-11T08:03:48.283Z,103661.16
2024-01-11T08:06:15.143Z,103651.19
2024-01-11T08:08:42.304Z,103656.22
2024-01-11T08:11:09.314Z,103640.22
2024-01-11T08:13:39.154Z,103648.91
2024-01-11T08:16:10.810Z,103650.44
2024-01-11T08:18:43.362Z,103648.31
2024-01-11T08:21:13.207Z,103643.00
2024-01-11T08:23:46.458Z,103653.66
2024-01-11T08:26:19.272Z,103639.03
2024-01-11T08:28:45.831Z,103638.75
2024-01-11T08:31:13.740Z,103652.66
2024-01-11T08:33:40.857Z,103657.53
2024-01-11T08:36:08.261Z,103661.41
2024-01-11T08:38:35.377Z,103664.34
2024-01-11T08:41:11.366Z,103663.88
2024-01-11T08:51:08.898Z,103691.19
2024-01-11T08:53:37.819Z,103692.44
2024-01-11T08:56:04.779Z,103697.19
2024-01-11T08:58:59.325Z,103703.47
2024-01-11T09:02:36.656Z,103725.47
2024-01-11T09:05:10.232Z,103723.81
2024-01-11T09:07:38.525Z,103726.44
2024-01-11T09:10:05.673Z,103721.84
2024-01-11T09:12:32.207Z,103727.97
2024-01-11T09:14:58.796Z,103735.53
2024-01-11T09:17:25.426Z,103730.34
2024-01-11T09:19:53.068Z,103723.28
2024-01-11T09:22:23.192Z,103723.00
2024-01-11T09:24:56.100Z,103734.13
2024-01-11T09:27:24.746Z,103726.63
2024-01-11T09:29:57.244Z,103736.03
2024-01-11T09:32:24.304Z,103729.66
2024-01-11T09:34:51.911Z,103728.66
2024-01-11T09:40:06.180Z,103733.91
2024-01-11T09:42:33.187Z,103742.47
2024-01-11T09:45:01.069Z,103737.66
2024-01-11T09:47:29.758Z,103736.50
2024-01-11T09:50:03.946Z,103739.53
2024-01-11T09:52:37.238Z,103745.28
2024-01-11T09:55:07.432Z,103741.44
2024-01-11T09:57:38.112Z,103741.25
2024-01-11T10:00:08.797Z,103744.63
2024-01-11T10:02:37.024Z,103745.97
2024-01-11T10:05:04.538Z,103749.03
2024-01-11T10:07:35.226Z,103752.25
2024-01-11T10:20:18.766Z,103757.19
2024-01-11T10:27:10.878Z,103750.56
2024-01-11T10:29:38.245Z,103743.72
2024-01-11T10:32:05.979Z,103741.53
2024-01-11T10:34:32.914Z,103742.91
2024-01-11T10:37:00.446Z,103751.28
2024-01-11T10:39:33.102Z,103738.38
2024-01-11T10:42:07.627Z,103742.44
2024-01-11T10:44:36.474Z,103747.16
2024-01-11T10:47:06.558Z,103744.13
2024-01-11T10:49:34.163Z,103746.34
2024-01-11T10:52:03.101Z,103746.00
2024-01-11T10:54:31.924Z,103749.03
2024-01-11T10:57:03.959Z,103753.72
2024-01-11T10:59:50.663Z,103745.34
2024-01-11T11:02:21.021Z,103754.75
2024-01-11T11:04:49.557Z,103760.81
2024-01-11T11:07:20.107Z,103748.91
2024-01-11T11:09:52.966Z,103762.84
2024-01-11T11:12:21.764Z,103765.34
2024-01-11T11:14:52.051Z,103755.97
2024-01-11T11:17:23.432Z,103765.22
2024-01-11T11:19:49.986Z,103766.69
2024-01-11T11:22:17.299Z,103761.50
2024-01-11T11:24:46.894Z,103760.34
2024-01-11T11:27:15.657Z,103763.69
2024-01-11T11:29:42.996Z,103754.13
2024-01-11T11:32:18.014Z,103756.31
2024-01-11T11:34:48.660Z,103758.50
2024-01-11T11:37:24.752Z,103750.09
2024-01-11T11:39:52.143Z,103742.72
2024-01-11T11:42:19.299Z,103739.66
2024-01-11T11:44:54.902Z,103732.94
2024-01-11T11:47:23.993Z,103739.84
2024-01-11T11:52:58.965Z,103727.56
2024-01-11T11:55:26.412Z,103724.19
2024-01-11T11:57:56.773Z,103723.69
2024-01-11T12:00:24.685Z,103717.13
2024-01-11T12:02:53.720Z,103713.09
2024-01-11T12:05:20.685Z,103715.06
2024-01-11T12:07:48.272Z,103702.78
2024-01-11T12:10:15.336Z,103690.84
2024-01-11T12:12:47.729Z,103691.84
2024-01-11T12:15:14.830Z,103678.72
2024-01-11T12:17:43.785Z,103668.09
2024-01-11T12:20:11.294Z,103669.22
2024-01-11T12:22:37.849Z,103668.53
2024-01-11T12:25:05.873Z,103661.63
2024-01-11T12:27:32.494Z,103664.97
2024-01-11T12:29:59.917Z,103663.78
2024-01-11T12:32:27.694Z,103665.09
2024-01-11T12:34:54.781Z,103670.97
2024-01-11T12:37:57.088Z,103673.50
2024-01-11T12:40:39.424Z,103673.09
2024-01-11T12:43:06.631Z,103664.03
2024-01-11T12:45:33.798Z,103652.91
2024-01-11T12:48:04.996Z,103649.84
2024-01-11T12:50:35.641Z,103650.53
2024-01-11T12:53:24.144Z,103647.66
2024-01-11T12:56:05.421Z,103639.03
2024-01-11T12:58:39.450Z,103637.00
2024-01-11T13:01:09.400Z,103633.13
2024-01-11T13:04:12.305Z,103633.78
2024-01-11T13:06:39.004Z,103640.00
2024-01-11T13:09:06.131Z,103637.13
2024-01-11T13:11:33.649Z,103634.25
2024-01-11T13:14:02.414Z,103626.19
2024-01-11T13:16:29.550Z,103623.31
2024-01-11T13:21:36.733Z,103623.13
2024-01-11T13:24:08.780Z,103630.19
2024-01-11T13:26:39.050Z,103633.53
2024-01-11T13:29:06.684Z,103634.19
2024-01-11T13:31:34.230Z,103624.06
2024-01-11T13:37:24.168Z,103612.56
2024-01-11T14:01:00.337Z,103593.28
2024-01-11T14:07:37.935Z,103589.94
2024-01-11T14:16:28.618Z,103596.34
2024-01-11T14:19:33.455Z,103597.38
2024-01-11T14:22:00.147Z,103593.66
2024-01-11T14:24:33.034Z,103596.34
2024-01-11T14:27:06.105Z,103592.63
2024-01-11T14:29:58.099Z,103593.66
2024-01-11T14:32:34.311Z,103599.03
2024-01-11T14:35:22.858Z,103595.34
2024-01-11T14:37:50.356Z,103593.66
2024-01-11T14:40:43.039Z,103581.69
2024-01-11T14:43:10.096Z,103575.28
2024-01-11T14:45:39.343Z,103578.81
2024-01-11T14:48:14.110Z,103577.78
2024-01-11T14:50:40.846Z,103578.44
2024-01-11T14:53:07.567Z,103580.97
2024-01-11T14:55:36.553Z,103578.44
2024-01-11T14:58:03.138Z,103584.66
2024-01-11T15:00:29.694Z,103588.03
2024-01-11T15:02:56.342Z,103586.34
2024-01-11T15:05:23.069Z,103586.34
2024-01-11T15:07:50.078Z,103584.66
2024-01-11T15:10:16.744Z,103582.16
2024-01-11T15:12:43.568Z,103583.81
2024-01-11T15:15:13.367Z,103582.16
2024-01-11T15:17:40.246Z,103584.00
2024-01-11T15:26:05.220Z,103592.47
2024-01-11T15:28:32.304Z,103585.41
2024-01-11T15:31:19.466Z,103570.06
2024-01-11T15:33:46.993Z,103578.16
2024-01-11T15:36:48.312Z,103576.28
2024-01-11T15:39:24.873Z,103579.16
2024-01-11T15:41:56.593Z,103575.63
2024-01-11T15:44:25.144Z,103577.50
2024-01-11T15:46:52.760Z,103569.41
2024-01-11T15:49:19.463Z,103566.06
2024-01-11T15:51:46.332Z,103572.28
2024-01-11T15:57:41.915Z,103565.88
2024-01-11T16:00:13.000Z,103565.03
2024-01-11T16:03:34.139Z,103563.38
2024-01-11T16:06:26.185Z,103568.75
2024-01-11T16:12:48.252Z,103556.31
2024-01-11T16:19:28.578Z,103563.00
2024-01-11T16:22:54.449Z,103559.28
2024-01-11T16:32:32.617Z,103569.88
2024-01-11T16:38:12.992Z,103570.91
2024-01-11T16:41:30.060Z,103563.66
2024-01-11T16:53:07.867Z,103559.75
2024-01-11T17:04:07.658Z,103563.59
2024-01-11T17:07:06.458Z,103562.56
2024-01-11T17:09:24.108Z,103558.63
2024-01-11T17:11:56.244Z,103554.31
2024-01-11T17:14:45.595Z,103552.41
2024-01-11T17:17:12.732Z,103553.25
2024-01-11T17:22:33.382Z,103545.38
2024-01-11T17:25:05.615Z,103534.59
2024-01-11T17:27:59.818Z,103543.31
2024-01-11T17:30:27.466Z,103545.16
2024-01-11T17:32:55.749Z,103531.69
2024-01-11T17:39:06.986Z,103546.66
2024-01-11T17:42:25.326Z,103552.06
2024-01-11T17:45:12.620Z,103545.00
2024-01-11T17:47:39.492Z,103546.66
2024-01-11T17:50:26.248Z,103548.16
2024-01-11T17:52:53.240Z,103554.00
2024-01-11T17:55:39.725Z,103550.47
2024-01-11T17:58:06.558Z,103560.06
2024-01-11T18:00:50.952Z,103569.81
2024-01-11T18:03:17.861Z,103576.22
2024-01-11T18:05:55.326Z,103570.84
2024-01-11T18:08:35.330Z,103566.47
2024-01-11T18:11:52.836Z,103567.47
2024-01-11T18:14:12.980Z,103558.38
2024-01-11T18:16:41.255Z,103563.78
2024-01-11T18:19:14.879Z,103566.28
2024-01-11T18:21:42.861Z,103560.06
2024-01-11T18:24:10.464Z,103565.44
2024-01-11T18:26:39.618Z,103567.94
2024-01-11T18:29:53.137Z,103566.75
2024-01-11T18:32:29.124Z,103557.66
2024-01-11T18:34:57.108Z,103548.53
2024-01-11T18:37:42.869Z,103545.84
2024-01-11T18:40:15.316Z,103537.75
2024-01-11T18:42:50.792Z,103537.56
2024-01-11T18:53:37.947Z,103524.94
2024-01-11T18:56:14.877Z,103534.03
2024-01-11T18:58:43.533Z,103546.50
2024-01-11T19:01:16.778Z,103540.09
2024-01-11T19:03:44.933Z,103543.63
2024-01-11T19:06:14.951Z,103542.13
2024-01-11T19:08:42.329Z,103534.03
2024-01-11T19:11:18.651Z,103527.63
2024-01-11T19:16:58.945Z,103525.59
2024-01-11T19:19:54.740Z,103539.72
2024-01-11T19:22:23.046Z,103545.09
2024-01-11T19:24:50.049Z,103539.72
2024-01-11T19:27:36.166Z,103549.47
2024-01-11T19:30:28.691Z,103546.59
2024-01-11T19:32:55.940Z,103563.59
2024-01-11T19:35:24.873Z,103559.06
2024-01-11T19:37:54.520Z,103555.34
2024-01-11T19:40:21.226Z,103556.16
2024-01-11T19:42:47.885Z,103554.97
2024-01-11T19:45:15.153Z,103548.75
2024-01-11T19:47:42.697Z,103562.41
2024-01-11T19:50:12.742Z,103553.47
2024-01-11T19:52:39.399Z,103558.69
2024-01-11T19:55:08.171Z,103568.63
2024-01-11T19:57:35.173Z,103572.16
2024-01-11T20:00:01.742Z,103563.88
2024-01-11T20:02:38.191Z,103571.97
2024-01-11T20:05:06.052Z,103573.63
2024-01-11T20:07:33.023Z,103568.22
2024-01-11T20:10:00.440Z,103565.75
2024-01-11T20:12:27.176Z,103564.91
2024-01-11T20:14:53.926Z,103571.97
2024-01-11T20:17:20.693Z,103571.13
2024-01-11T20:19:51.967Z,103570.91
2024-01-11T20:22:21.360Z,103580.69
2024-01-11T20:24:52.000Z,103589.44
2024-01-11T20:27:19.271Z,103587.56
2024-01-11T20:29:59.727Z,103588.41
2024-01-11T20:32:28.268Z,103592.78
2024-01-11T20:34:55.585Z,103588.41
2024-01-11T20:37:24.383Z,103590.25
2024-01-11T20:39:51.031Z,103592.13
2024-01-11T20:42:17.614Z,103593.59
2024-01-11T20:44:44.265Z,103589.06
2024-01-11T20:47:11.024Z,103586.34
2024-01-11T20:49:39.170Z,103595.28
2024-01-11T20:52:05.893Z,103594.25
2024-01-11T20:54:32.493Z,103592.59
2024-01-11T20:56:59.175Z,103594.06
2024-01-11T20:59:25.856Z,103597.44
2024-01-11T21:01:55.458Z,103590.34
2024-01-11T21:04:22.179Z,103599.47
2024-01-11T21:06:49.106Z,103597.78
2024-01-11T21:09:15.848Z,103598.63
2024-01-11T21:11:42.436Z,103612.13
2024-01-11T21:14:09.011Z,103598.63
2024-01-11T21:16:35.759Z,103600.97
2024-01-11T21:19:06.891Z,103595.75
2024-01-11T21:21:40.510Z,103593.25
2024-01-11T21:26:51.304Z,103581.63
2024-01-11T21:29:18.163Z,103590.53
2024-01-11T21:32:01.693Z,103580.59
2024-01-11T21:34:28.605Z,103588.69
2024-01-11T21:36:57.819Z,103588.69
2024-01-11T21:39:25.769Z,103587.00
2024-01-11T21:41:56.101Z,103592.41
2024-01-11T21:48:48.614Z,103581.81
2024-01-11T21:51:15.455Z,103587.19
2024-01-11T21:53:42.771Z,103591.75
2024-01-11T21:56:09.980Z,103592.41
2024-01-11T21:58:38.367Z,103594.91
2024-01-11T22:01:07.375Z,103587.47
2024-01-11T22:03:40.973Z,103583.56
2024-01-11T22:06:08.212Z,103585.25
2024-01-11T22:08:35.023Z,103592.59
2024-01-11T22:11:01.787Z,103595.09
2024-01-11T22:13:31.371Z,103590.47
2024-01-11T22:16:02.751Z,103584.84
2024-01-11T22:20:56.467Z,103586.72
2024-01-11T22:23:23.143Z,103605.59
2024-01-11T22:25:49.777Z,103594.81
2024-01-11T22:28:16.348Z,103594.63
2024-01-11T22:30:42.999Z,103602.72
2024-01-11T22:33:14.957Z,103610.59
2024-01-11T22:35:41.964Z,103611.25
2024-01-11T22:38:09.727Z,103605.50
2024-01-11T22:40:36.320Z,103597.03
2024-01-11T22:43:02.830Z,103600.38
2024-01-11T22:45:29.314Z,103602.41
2024-01-11T22:47:56.119Z,103602.69
2024-01-11T22:50:22.728Z,103593.41
2024-01-11T22:52:49.294Z,103598.97
2024-01-11T22:55:16.014Z,103607.50
2024-01-11T22:57:42.554Z,103607.13
2024-01-11T23:00:22.287Z,103614.19
2024-01-11T23:02:53.274Z,103607.13
2024-01-11T23:05:20.626Z,103610.00
2024-01-11T23:07:48.240Z,103603.94
2024-01-11T23:10:15.288Z,103606.66
2024-01-11T23:12:43.005Z,103607.69
2024-01-11T23:15:11.395Z,103593.56
2024-01-11T23:17:38.535Z,103584.81
2024-01-11T23:20:08.042Z,103585.00
2024-01-11T23:22:36.109Z,103579.25
2024-01-11T23:25:02.963Z,103589.38
2024-01-11T23:27:29.506Z,103600.81
2024-01-11T23:29:56.840Z,103596.88
2024-01-11T23:32:25.310Z,103591.94
2024-01-11T23:34:51.991Z,103599.00
2024-01-11T23:37:19.191Z,103607.75
2024-01-11T23:39:45.819Z,103596.97
2024-01-11T23:42:13.362Z,103601.53
2024-01-11T23:44:43.202Z,103603.28
2024-01-11T23:47:09.860Z,103597.88
2024-01-11T23:49:37.138Z,103591.47
2024-01-11T23:52:04.063Z,103603.94
2024-01-11T23:54:30.727Z,103600.84
2024-01-11T23:56:57.508Z,103593.03
2024-01-11T23:59:24.788Z,103591.16
